• Join FlightAware (Why Join?)
  • Login
  • US Flag 
05:07PM EDT


 

Airport Tracker/Info


-or-


 

Live Flight TrackerFlight Track Log ✈ AAL1459 ✈ 24-Apr-2013 ✈ KORD - KRNO

Flight Track Log - Related Links

Times and Time Zones

All times are in EDT time to prevent confusion due to time zone crossing. See the AAL1459 flight status page for this flight to view local times or setup timezone preferences in your user account.

Time Position Orientation Groundspeed Altitude Reporting Facility
EDT Latitude Longitude Course Direction KTS MPH feet Rate Location/Type
06:26PM 41.9890 -87.9320 283° West 181 208 900  Level FlightAware
06:26PM 41.9970 -87.9420 317° Northwest 174 200 1,800 3,360 Climbing FlightAware
06:26PM 42.0000 -87.9540 289° West 184 212 2,300 2,040 Climbing FlightAware
06:27PM 42.0050 -87.9850 282° West 229 264 3,000 2,400 Climbing FlightAware
06:27PM 42.0190 -88.0330 291° West 246 283 4,700 1,860 Climbing FlightAware
06:28PM 42.0270 -88.0720 285° West 252 290 4,900 1,200 Climbing FlightAware
06:28PM 42.0320 -88.1190 278° West 253 291 5,800 2,700 Climbing FlightAware
06:29PM 42.0360 -88.1590 278° West 253 291 7,400 3,780 Climbing FlightAware
06:29PM 42.0390 -88.2010 276° West 251 289 9,300 3,720 Climbing FlightAware
06:30PM 42.0440 -88.2640 276° West 250 288 11,800 2,580 Climbing FlightAware
06:31PM 42.0500 -88.3420 276° West 302 348 13,000 2,160 Climbing FlightAware
06:31PM 42.0560 -88.4190 276° West 316 364 14,900 2,820 Climbing FlightAware
06:32PM 42.0640 -88.5080 277° West 330 380 17,000 2,820 Climbing FlightAware
06:33PM 42.0730 -88.5930 278° West 336 387 18,900 2,760 Climbing FlightAware
06:33PM 42.0820 -88.6770 278° West 341 392 20,700 2,280 Climbing FlightAware
06:34PM 42.0920 -88.7720 278° West 354 407 22,200 2,100 Climbing FlightAware
06:35PM 42.1010 -88.8590 278° West 360 414 23,700 1,920 Climbing FlightAware
06:35PM 42.1130 -88.9630 279° West 374 430 25,000 1,680 Climbing FlightAware
06:36PM 42.1230 -89.0540 278° West 384 442 26,100 1,800 Climbing FlightAware
06:37PM 42.1350 -89.1520 279° West 386 444 27,400 1,920 Climbing FlightAware
06:38PM 42.1470 -89.2550 279° West 383 441 28,900 2,100 Climbing FlightAware
06:38PM 42.1570 -89.3500 278° West 376 433 30,400 2,040 Climbing FlightAware
06:39PM 42.1690 -89.4510 279° West 370 426 31,800 1,080 Climbing FlightAware
06:40PM 42.1790 -89.5450 278° West 372 428 32,000 120 Climbing FlightAware
06:40PM 42.1890 -89.6330 279° West 372 428 32,000  Level FlightAware
06:41PM 42.2010 -89.7360 279° West 374 430 32,000  Level FlightAware
06:42PM 42.2110 -89.8270 278° West 374 430 32,000  Level FlightAware
06:42PM 42.2210 -89.9220 278° West 372 428 32,000  Level FlightAware
06:43PM 42.2320 -90.0210 279° West 368 423 32,000  Level FlightAware
06:44PM 42.2420 -90.1110 279° West 367 422 32,000  Level FlightAware
06:45PM 42.2530 -90.2130 278° West 364 419 32,000  Level FlightAware
06:45PM 42.2620 -90.3040 278° West 362 417 32,000  Level FlightAware
06:46PM 42.2720 -90.3960 278° West 361 415 32,000  Level FlightAware
06:47PM 42.2820 -90.4950 278° West 361 415 32,000  Level FlightAware
06:47PM 42.2910 -90.5870 278° West 360 414 32,000  Level FlightAware
06:48PM 42.3000 -90.6720 278° West 359 413 32,000  Level FlightAware
06:49PM 42.3110 -90.7730 278° West 359 413 32,000  Level FlightAware
06:49PM 42.3200 -90.8630 278° West 360 414 32,000  Level FlightAware
06:50PM 42.3280 -90.9530 277° West 362 417 32,000  Level FlightAware
06:51PM 42.3380 -91.0540 278° West 363 418 32,000  Level FlightAware
06:51PM 42.3470 -91.1370 278° West 365 420 32,000  Level FlightAware
06:52PM 42.3570 -91.2410 277° West 365 420 32,000  Level FlightAware
06:53PM 42.3660 -91.3350 277° West 365 420 32,000  Level FlightAware
06:54PM 42.3750 -91.4340 277° West 365 420 32,000  Level FlightAware
06:54PM 42.3830 -91.5160 278° West 366 421 32,000  Level FlightAware
06:55PM 42.3920 -91.6100 277° West 366 421 32,000  Level FlightAware
06:56PM 42.4020 -91.7210 277° West 366 421 32,000  Level FlightAware
06:57PM 42.4120 -91.8250 277° West 365 420 32,000  Level FlightAware
06:57PM 42.4210 -91.9310 277° West 368 423 32,000  Level FlightAware
06:58PM 42.4290 -92.0200 277° West 370 426 32,000  Level FlightAware
06:59PM 42.4400 -92.1480 277° West 370 426 32,000  Level FlightAware
07:00PM 42.4460 -92.2270 276° West 370 426 32,000  Level FlightAware
07:00PM 42.4600 -92.3590 278° West 374 430 32,000  Level FlightAware
07:01PM 42.4670 -92.4450 276° West 374 430 32,000  Level FlightAware
07:02PM 42.4770 -92.5590 277° West 373 429 32,000  Level FlightAware
07:03PM 42.4860 -92.6690 276° West 372 428 32,000  Level FlightAware
07:03PM 42.4920 -92.7480 276° West 372 428 32,000  Level FlightAware
07:04PM 42.5000 -92.8470 276° West 372 428 32,000  Level FlightAware
07:05PM 42.5060 -92.9260 276° West 372 428 32,000  Level FlightAware
07:05PM 42.5120 -93.0050 276° West 372 428 32,000  Level FlightAware
07:06PM 42.5180 -93.0840 276° West 372 428 32,000  Level FlightAware
07:07PM 42.5240 -93.1630 276° West 372 428 32,000  Level FlightAware
07:08PM 42.5320 -93.2610 276° West 372 428 32,000  Level FlightAware
07:08PM 42.5380 -93.3400 276° West 372 428 32,000  Level FlightAware
07:09PM 42.5560 -93.5470 277° West 369 425 32,000  Level FlightAware
07:10PM 42.5620 -93.6260 276° West 368 423 32,000  Level FlightAware
07:10PM 42.5670 -93.7050 275° West 368 423 32,000  Level FlightAware
07:11PM 42.5730 -93.8030 275° West 368 423 32,000  Level FlightAware
07:12PM 42.5780 -93.8810 275° West 368 423 32,000  Level FlightAware
07:12PM 42.5830 -93.9590 275° West 368 423 32,000  Level FlightAware
07:13PM 42.5880 -94.0380 275° West 368 423 32,000  Level FlightAware
07:14PM 42.5930 -94.1160 275° West 368 423 32,000  Level FlightAware
07:15PM 42.5990 -94.2140 275° West 368 423 32,000  Level FlightAware
07:15PM 42.6040 -94.2920 275° West 368 423 32,000  Level FlightAware
07:16PM 42.6090 -94.3710 275° West 368 423 32,000  Level FlightAware
07:17PM 42.6140 -94.4490 275° West 368 423 32,000  Level FlightAware
07:17PM 42.6210 -94.5470 276° West 368 423 32,000  Level FlightAware
07:18PM 42.6260 -94.6250 275° West 368 423 32,000  Level FlightAware
07:19PM 42.6310 -94.7040 275° West 368 423 32,000  Level FlightAware
07:20PM 42.9006 -94.9661 275° West 368 423 32,000  Level Minneapolis Center
07:21PM 42.9517 -95.0864 300° West 367 422 32,000  Level Minneapolis Center
07:22PM 43.0128 -95.2308 300° West 366 421 32,000  Level Minneapolis Center
07:23PM 43.0639 -95.3517 300° West 368 423 32,000  Level Minneapolis Center
07:24PM 43.1158 -95.4742 300° West 370 426 32,000  Level Minneapolis Center
07:25PM 43.1661 -95.5986 299° West 373 429 32,000  Level Minneapolis Center
07:26PM 43.2181 -95.7214 300° West 373 429 32,000  Level Minneapolis Center
07:27PM 43.2692 -95.8433 300° West 370 426 32,000  Level Minneapolis Center
07:28PM 43.3303 -95.9917 300° West 371 427 32,000  Level Minneapolis Center
07:29PM 43.3808 -96.1150 299° West 371 427 32,000  Level Minneapolis Center
07:30PM 43.4317 -96.2397 299° West 373 429 32,000  Level Minneapolis Center
07:31PM 43.4808 -96.3633 299° West 369 425 32,000  Level Minneapolis Center
07:32PM 43.5292 -96.4872 298° West 367 422 32,000  Level Minneapolis Center
07:33PM 43.5806 -96.6094 300° West 366 421 32,000  Level Minneapolis Center
07:34PM 43.6297 -96.7314 299° West 364 419 32,000  Level Minneapolis Center
07:36PM 43.6586 -96.8956 284° West 370 426 32,000  Level Minneapolis Center
07:37PM 43.6697 -97.0389 276° West 374 430 32,000  Level Minneapolis Center
07:38PM 43.6808 -97.1786 276° West 369 425 32,000  Level Minneapolis Center
07:39PM 43.6914 -97.3197 276° West 368 423 32,000  Level Minneapolis Center
07:40PM 43.7014 -97.4589 276° West 366 421 32,000  Level Minneapolis Center
07:41PM 43.7119 -97.5997 276° West 369 425 32,000  Level Minneapolis Center
07:42PM 43.7244 -97.7681 276° West 367 422 32,000  Level Minneapolis Center
07:43PM 43.7342 -97.9100 275° West 370 426 32,000  Level Minneapolis Center
07:44PM 43.7444 -98.0497 276° West 368 423 32,000  Level Minneapolis Center
07:45PM 43.7533 -98.1917 275° West 371 427 32,000  Level Minneapolis Center
07:46PM 43.7656 -98.3619 276° West 372 428 32,000  Level Minneapolis Center
07:47PM 43.7736 -98.5039 275° West 370 426 32,000  Level Minneapolis Center
07:48PM 43.7828 -98.6458 275° West 372 428 32,000  Level Minneapolis Center
07:49PM 43.7936 -98.8094 275° West 370 426 32,000  Level Minneapolis Center
07:50PM 43.8019 -98.9533 275° West 373 429 32,000  Level Minneapolis Center
07:51PM 43.8111 -99.0961 275° West 372 428 32,000  Level Minneapolis Center
07:52PM 43.8189 -99.2394 274° West 372 428 32,000  Level Minneapolis Center
07:53PM 43.8281 -99.3811 275° West 370 426 32,000  Level Minneapolis Center
07:54PM 43.8364 -99.5506 274° West 368 423 32,000  Level Minneapolis Center
07:55PM 43.8444 -99.6914 275° West 367 422 32,000  Level Minneapolis Center
07:56PM 43.8519 -99.8322 274° West 366 421 32,000  Level Minneapolis Center
07:57PM 43.8597 -99.9733 274° West 367 422 32,000  Level Minneapolis Center
07:58PM 43.8664 -100.1164 274° West 369 425 32,000  Level Minneapolis Center
07:59PM 43.8739 -100.2553 274° West 366 421 32,000  Level Minneapolis Center
08:01PM 43.8800 -100.3978 273° West 366 421 32,000  Level Minneapolis Center
08:02PM 43.8867 -100.5375 274° West 366 421 32,000  Level Minneapolis Center
08:03PM 43.8947 -100.7136 274° West 373 429 32,000  Level Minneapolis Center
08:04PM 43.9017 -100.8586 274° West 375 432 32,000  Level Minneapolis Center
08:05PM 43.9081 -101.0042 274° West 377 434 32,000  Level Minneapolis Center
08:06PM 43.9142 -101.1500 273° West 378 435 32,000  Level Minneapolis Center
08:07PM 43.9206 -101.2947 274° West 377 434 32,000  Level Minneapolis Center
08:07PM 43.9244 -101.4111 273° West 377 434 32,000  Level Denver Center
08:09PM 43.9303 -101.5567 273° West 378 435 32,000  Level Denver Center
08:10PM 43.9347 -101.7019 272° West 377 434 32,000  Level Denver Center
08:11PM 43.9383 -101.8736 272° West 372 428 32,000  Level Denver Center
08:12PM 43.9436 -102.0200 273° West 376 433 32,000  Level Denver Center
08:13PM 43.9497 -102.1672 273° West 381 438 32,000 960 Level Denver Center
08:14PM 43.9547 -102.3128 273° West 379 436 34,000 960 Climbing Denver Center
08:15PM 43.9614 -102.4581 274° West 376 433 34,000  Level Denver Center
08:16PM 43.9650 -102.6128 272° West 381 438 34,000  Level Denver Center
08:17PM 43.9692 -102.7819 272° West 382 440 34,000  Level Denver Center
08:18PM 43.9742 -102.9194 273° West 384 442 34,000  Level Denver Center
08:19PM 43.9769 -103.0842 271° West 384 442 34,000  Level Denver Center
08:20PM 43.9808 -103.2269 272° West 386 444 34,000 720 Level Denver Center
08:21PM 43.9844 -103.3961 272° West 391 450 35,500 1,320 Climbing Denver Center
08:22PM 43.9861 -103.5342 271° West 377 434 36,800 1,020 Climbing Denver Center
08:23PM 43.9889 -103.6978 271° West 380 437 37,700 480 Climbing Denver Center
08:24PM 43.9917 -103.8389 272° West 384 442 37,900 120 Climbing Denver Center
08:25PM 43.9928 -104.0075 271° West 391 450 38,000  Climbing Denver Center
08:26PM 43.9953 -104.1544 271° West 398 458 38,000  Level Denver Center
08:27PM 43.9981 -104.3233 271° West 394 453 38,000  Level Denver Center
08:28PM 43.9989 -104.4722 270° West 400 460 38,000  Level Denver Center
08:29PM 44.0000 -104.6183 271° West 398 458 38,000  Level Denver Center
08:30PM 44.0017 -104.7894 271° West 398 458 38,000  Level Denver Center
08:31PM 44.0019 -104.9342 270° West 394 453 38,000  Level Denver Center
08:32PM 44.0033 -105.1053 271° West 397 457 38,000  Level Denver Center
08:33PM 44.0036 -105.2522 270° West 398 458 38,000  Level Denver Center
08:34PM 44.0039 -105.4258 270° West 402 463 38,000  Level Denver Center
08:35PM 44.0036 -105.5733 270° West 401 461 38,000  Level Denver Center
08:36PM 44.0028 -105.7464 270° West 402 463 38,000  Level Denver Center
08:37PM 44.0028 -105.8942 270° West 402 463 38,000  Level Denver Center
08:38PM 44.0017 -106.0675 270° West 403 464 38,000  Level Denver Center
08:40PM 44.0019 -106.2156 270° West 403 464 38,000  Level Denver Center
08:41PM 44.0003 -106.3875 269° West 401 461 38,000  Level Denver Center
08:42PM 43.9708 -106.5369 255° West 420 483 38,000  Level Denver Center
08:43PM 43.9306 -106.6808 249° West 422 486 38,000  Level Denver Center
08:44PM 43.8828 -106.8511 249° West 423 487 38,000  Level Denver Center
08:44PM 43.8628 -106.9189 248° West 426 490 38,000  Level Salt Lake Center
08:45PM 43.8225 -107.0631 249° West 422 486 38,000  Level Salt Lake Center
08:46PM 43.7797 -107.2106 248° West 427 491 38,000  Level Salt Lake Center
08:47PM 43.7311 -107.3808 248° West 426 490 38,000  Level Salt Lake Center
08:48PM 43.6897 -107.5272 249° West 425 489 38,000  Level Salt Lake Center
08:49PM 43.6400 -107.6981 248° West 428 493 38,000  Level Salt Lake Center
08:50PM 43.5983 -107.8428 248° West 425 489 38,000  Level Salt Lake Center
08:51PM 43.5481 -108.0100 248° West 422 486 38,000  Level Salt Lake Center
08:52PM 43.5061 -108.1525 248° West 420 483 38,000  Level Salt Lake Center
08:53PM 43.4647 -108.2953 248° West 419 482 38,000  Level Salt Lake Center
08:54PM 43.4181 -108.4606 249° West 415 478 38,000  Level Salt Lake Center
08:55PM 43.3792 -108.6006 249° West 410 472 38,000  Level Salt Lake Center
08:56PM 43.3314 -108.7597 248° West 406 467 38,000  Level Salt Lake Center
08:57PM 43.2931 -108.8978 249° West 404 465 38,000  Level Salt Lake Center
08:58PM 43.2533 -109.0372 249° West 406 467 38,000  Level Salt Lake Center
08:59PM 43.2061 -109.1997 248° West 410 472 38,000  Level Salt Lake Center
09:00PM 43.1656 -109.3406 248° West 413 475 38,000  Level Salt Lake Center
09:01PM 43.1192 -109.5006 248° West 406 467 38,000  Level Salt Lake Center
09:03PM 43.0778 -109.6375 248° West 406 467 38,000  Level Salt Lake Center
09:04PM 43.0306 -109.7981 248° West 407 468 38,000  Level Salt Lake Center
09:05PM 42.9908 -109.9331 248° West 411 473 38,000  Level Salt Lake Center
09:06PM 42.9422 -110.0936 248° West 410 472 38,000  Level Salt Lake Center
09:07PM 42.9008 -110.2311 248° West 410 472 38,000  Level Salt Lake Center
09:08PM 42.8586 -110.3672 247° West 409 471 38,000  Level Salt Lake Center
09:09PM 42.8103 -110.5269 248° West 409 471 38,000  Level Salt Lake Center
09:10PM 42.7689 -110.6633 248° West 405 466 38,000  Level Salt Lake Center
09:11PM 42.7200 -110.8214 247° West 405 466 38,000  Level Salt Lake Center
09:12PM 42.6772 -110.9603 247° West 412 474 38,000  Level Salt Lake Center
09:13PM 42.6361 -111.0897 247° West 409 471 38,000  Level Salt Lake Center
09:14PM 42.5833 -111.2586 247° West 408 470 38,000  Level Salt Lake Center
09:15PM 42.5386 -111.4006 247° West 410 472 38,000  Level Salt Lake Center
09:16PM 42.4936 -111.5422 247° West 411 473 38,000  Level Salt Lake Center
09:17PM 42.4486 -111.6831 247° West 410 472 38,000  Level Salt Lake Center
09:18PM 42.4033 -111.8236 246° West 411 473 38,000  Level Salt Lake Center
09:19PM 42.3578 -111.9664 247° West 414 476 38,000  Level Salt Lake Center
09:20PM 42.3108 -112.1067 246° West 414 476 38,000  Level Salt Lake Center
09:21PM 42.2567 -112.2758 247° West 412 474 38,000  Level Salt Lake Center
09:22PM 42.2100 -112.4164 246° West 414 476 38,000  Level Salt Lake Center
09:23PM 42.1636 -112.5556 246° West 410 472 38,000  Level Salt Lake Center
09:24PM 42.1167 -112.6950 246° West 410 472 38,000  Level Salt Lake Center
09:25PM 42.0689 -112.8336 245° Southwest 410 472 38,000 -1,260 Level Salt Lake Center
09:26PM 42.0225 -112.9700 245° Southwest 406 467 35,500  Descending Salt Lake Center
09:27PM 41.9758 -113.1075 246° West 405 466 38,000 780 Climbing Salt Lake Center
09:29PM 41.8700 -113.4125 245° Southwest 410 472 38,000  Level Salt Lake Center
09:30PM 41.8211 -113.5494 244° Southwest 409 471 38,000  Level Salt Lake Center
09:31PM 41.7725 -113.6881 245° Southwest 412 474 38,000  Level Salt Lake Center
09:32PM 41.7239 -113.8272 245° Southwest 413 475 38,000  Level Salt Lake Center
09:33PM 41.6731 -113.9675 244° Southwest 418 481 38,000  Level Salt Lake Center
09:34PM 41.6214 -114.1186 245° Southwest 418 481 38,000  Level Salt Lake Center
09:35PM 41.5744 -114.2481 244° Southwest 420 483 38,000  Level Salt Lake Center
09:36PM 41.5136 -114.4153 244° Southwest 420 483 38,000  Level Salt Lake Center
09:37PM 41.4631 -114.5564 244° Southwest 423 487 38,000  Level Salt Lake Center
09:38PM 41.4117 -114.6950 244° Southwest 420 483 38,000  Level Salt Lake Center
09:39PM 41.3614 -114.8350 244° Southwest 420 483 38,000  Level Salt Lake Center
09:40PM 41.3050 -114.9900 244° Southwest 418 481 38,000  Level Salt Lake Center
09:41PM 41.2539 -115.1236 243° Southwest 422 486 38,000  Level Salt Lake Center
09:43PM 41.2061 -115.2569 245° Southwest 419 482 38,000  Level Salt Lake Center
09:44PM 41.1475 -115.4156 244° Southwest 425 489 38,000  Level Salt Lake Center
09:45PM 41.0947 -115.5497 242° Southwest 429 494 38,000  Level Salt Lake Center
09:46PM 41.0372 -115.7050 244° Southwest 422 486 38,000  Level Salt Lake Center
09:47PM 40.9975 -115.8442 249° West 422 486 38,000  Level Salt Lake Center
09:48PM 40.9611 -115.9858 251° West 424 488 38,000  Level Salt Lake Center
09:49PM 40.9167 -116.1469 250° West 420 483 38,000  Level Salt Lake Center
09:50PM 40.8781 -116.2853 250° West 420 483 38,000  Level Salt Lake Center
09:51PM 40.8344 -116.4461 250° West 418 481 38,000  Level Salt Lake Center
09:52PM 40.7964 -116.5828 250° West 416 479 38,000  Level Salt Lake Center
09:53PM 40.7517 -116.7417 250° West 416 479 38,000  Level Salt Lake Center
09:54PM 40.7133 -116.8781 250° West 417 480 38,000  Level Salt Lake Center
09:55PM 40.6753 -117.0142 250° West 417 480 38,000  Level Salt Lake Center
09:56PM 40.6297 -117.1728 249° West 418 481 38,000  Level Salt Lake Center
09:57PM 40.5911 -117.3083 249° West 416 479 38,000 -540 Level Salt Lake Center
09:58PM 40.5678 -117.4739 260° West 414 476 37,000 -960 Descending Salt Lake Center
09:59PM 40.5486 -117.6181 260° West 418 481 36,100 -1,020 Descending Salt Lake Center
09:59PM 40.5408 -117.6900 262° West 419 482 35,500 -1,320 Descending Oakland Center
10:00PM 40.5178 -117.8611 260° West 426 490 34,200 -1,140 Descending Oakland Center
10:01PM 40.5069 -117.9358 259° West 428 493 33,700 -1,200 Descending Salt Lake Center
10:02PM 40.4456 -118.0939 243° Southwest 446 513 32,300 -1,200 Descending Salt Lake Center
10:03PM 40.3683 -118.2106 229° Southwest 445 512 31,300 -960 Descending Salt Lake Center
10:03PM 40.3303 -118.2711 231° Southwest 441 507 30,900 -660 Descending Oakland Center
10:04PM 40.2511 -118.3903 229° Southwest 435 501 30,400 -540 Descending Oakland Center
10:05PM 40.1733 -118.5067 229° Southwest 429 494 29,900 -1,140 Descending Oakland Center
10:07PM 40.0950 -118.6181 227° Southwest 417 480 28,200 -1,920 Descending Oakland Center
10:08PM 40.0119 -118.7189 223° Southwest 409 471 26,000 -2,220 Descending Oakland Center
10:09PM 39.9322 -118.8164 223° Southwest 397 457 23,700 -2,280 Descending Oakland Center
10:10PM 39.8547 -118.9094 223° Southwest 384 442 21,400 -2,280 Descending Oakland Center
10:11PM 39.7783 -119.0025 223° Southwest 379 436 19,100 -2,220 Descending Oakland Center
10:12PM 39.7033 -119.0928 223° Southwest 373 429 17,000 -1,620 Descending Oakland Center
10:13PM 39.6189 -119.1947 223° Southwest 349 402 15,900 -960 Descending Oakland Center
10:18PM 39.3710 -119.5820 223° Southwest 230 265 10,900 -900 Descending FlightAware
10:19PM 39.3530 -119.6310 245° Southwest 210 242 10,400 -900 Descending FlightAware
10:19PM 39.3720 -119.6730 300° West 203 234 9,700 -1,140 Descending FlightAware
10:20PM 39.3820 -119.7040 293° West 181 208 9,100 -1,320 Descending FlightAware
10:20PM 39.3920 -119.7300 296° West 167 192 8,400 -1,320 Descending FlightAware
10:21PM 39.4020 -119.7480 306° West 167 192 7,900 -1,560 Descending FlightAware
10:21PM 39.4190 -119.7380 24° Northeast 151 174 7,000 -1,020 Descending FlightAware
10:22PM 39.4260 -119.7180 66° East 151 174 7,000 -720 Level FlightAware
10:23PM 39.4380 -119.7670 288° West 161 185 5,600 -720 Descending FlightAware
10:24PM 39.4550 -119.7680 357° North 161 185 5,600  Level FlightAware